Time;durP1;ratioP1;P1;durP2;ratioP2;P2;SDS_P1;SDS_P2;PMS_P1;PMS_P2;Temp;Humidity;BMP_temperature;BMP_pressure;BME280_temperature;BME280_humidity;BME280_pressure;Samples;Min_cycle;Max_cycle;Signal;HPM_P1;HPM_P2
2022/04/02 00:00:22;;;;;;;;;8.75;6.00;;;;;2.89;63.08;101120.09;5074061;27;46192;-76
2022/04/02 00:02:47;;;;;;;;;7.75;5.00;;;;;2.90;63.32;101128.00;5067357;28;45311;-74
2022/04/02 00:05:12;;;;;;;;;3.75;3.75;;;;;3.03;62.21;101167.91;5062950;28;45449;-74
2022/04/02 00:07:38;;;;;;;;;5.50;5.25;;;;;3.00;61.84;101165.13;5071560;28;45266;-75
2022/04/02 00:10:05;;;;;;;;;9.25;8.75;;;;;2.98;61.94;101162.41;5079375;27;45373;-75
2022/04/02 00:12:31;;;;;;;;;10.25;8.25;;;;;2.89;62.85;101162.75;5077079;28;45355;-75
2022/04/02 00:14:57;;;;;;;;;9.25;8.25;;;;;2.80;62.39;101138.72;5076824;27;45350;-75
2022/04/02 00:17:22;;;;;;;;;9.25;8.00;;;;;2.79;62.23;101139.50;5078515;27;45342;-75
2022/04/02 00:19:48;;;;;;;;;8.50;8.50;;;;;2.89;62.77;101152.31;5078726;27;45178;-75
2022/04/02 00:22:13;;;;;;;;;9.00;8.25;;;;;2.94;61.33;101162.13;5078657;27;45469;-75
2022/04/02 00:24:39;;;;;;;;;5.50;3.75;;;;;2.94;61.91;101165.66;5078797;28;45249;-75
2022/04/02 00:27:04;;;;;;;;;7.50;7.50;;;;;2.43;61.20;101075.53;5079011;27;45234;-74
2022/04/02 00:29:29;;;;;;;;;8.25;8.25;;;;;2.92;61.09;101165.53;5078081;27;46227;-74
2022/04/02 00:31:55;;;;;;;;;9.50;8.00;;;;;2.88;60.73;101149.59;5067594;27;45162;-75
2022/04/02 00:34:21;;;;;;;;;4.50;4.00;;;;;2.80;61.01;101149.16;5077339;27;45360;-75
2022/04/02 00:36:46;;;;;;;;;7.25;7.25;;;;;2.87;60.82;101156.53;5066584;28;45206;-75
2022/04/02 00:39:12;;;;;;;;;8.75;6.00;;;;;2.92;60.14;101162.94;5075058;28;46455;-74
2022/04/02 00:41:37;;;;;;;;;4.75;4.75;;;;;2.69;61.55;101119.78;5066870;27;45278;-73
2022/04/02 00:44:12;;;;;;;;;6.00;6.00;;;;;2.80;59.75;101146.53;5076863;28;45481;-75
2022/04/02 00:46:40;;;;;;;;;12.75;6.00;;;;;2.69;59.75;101122.38;5065898;27;45379;-74
2022/04/02 00:49:06;;;;;;;;;8.50;5.00;;;;;2.89;60.13;101156.63;5077076;28;45674;-74
2022/04/02 00:51:32;;;;;;;;;6.50;4.25;;;;;2.93;60.15;101166.44;5067522;27;45446;-75
2022/04/02 00:53:59;;;;;;;;;9.75;5.00;;;;;2.60;59.85;101108.75;5070505;28;45240;-75
2022/04/02 00:56:24;;;;;;;;;8.25;5.00;;;;;2.71;59.87;101124.19;5077040;28;45917;-76
2022/04/02 00:58:50;;;;;;;;;5.00;5.00;;;;;2.90;59.04;101164.53;5068833;28;45393;-75
2022/04/02 01:01:16;;;;;;;;;6.75;4.50;;;;;2.88;58.68;101166.16;5064681;28;45279;-75
2022/04/02 01:03:43;;;;;;;;;7.50;5.50;;;;;2.87;59.21;101164.38;5073806;28;45236;-76
2022/04/02 01:06:10;;;;;;;;;8.50;4.00;;;;;2.80;59.37;101153.44;5065271;27;45363;-75
2022/04/02 01:08:37;;;;;;;;;8.50;6.00;;;;;2.69;59.06;101145.00;5072901;28;45261;-75
2022/04/02 01:11:03;;;;;;;;;5.75;4.00;;;;;2.75;59.34;101150.56;5078036;27;45366;-75
2022/04/02 01:13:29;;;;;;;;;5.50;5.50;;;;;2.79;59.13;101160.38;5077736;27;45487;-75
2022/04/02 01:15:56;;;;;;;;;6.50;3.75;;;;;2.77;58.87;101153.25;5078305;28;45434;-75
2022/04/02 01:18:22;;;;;;;;;8.00;5.00;;;;;2.66;58.87;101153.53;5077542;27;46361;-75
2022/04/02 01:20:48;;;;;;;;;4.50;4.50;;;;;2.51;59.07;101123.84;5078261;27;45242;-75
2022/04/02 01:23:14;;;;;;;;;5.75;4.00;;;;;2.38;59.16;101098.75;5069786;28;45339;-74
2022/04/02 01:25:40;;;;;;;;;6.75;6.75;;;;;2.49;59.59;101120.25;5079136;27;45995;-75
2022/04/02 01:28:06;;;;;;;;;5.25;5.00;;;;;2.40;59.55;101110.16;5080375;27;45340;-75
2022/04/02 01:30:32;;;;;;;;;6.25;5.00;;;;;2.37;59.67;101106.44;5068305;27;45355;-75
2022/04/02 01:32:58;;;;;;;;;4.75;4.75;;;;;2.52;59.32;101143.94;5064905;28;45358;-75
2022/04/02 01:35:24;;;;;;;;;5.25;2.75;;;;;2.54;58.92;101157.97;5081118;27;45443;-74
2022/04/02 01:37:50;;;;;;;;;8.25;5.25;;;;;2.50;59.36;101144.66;5069499;28;46192;-75
2022/04/02 01:40:16;;;;;;;;;4.25;4.25;;;;;2.51;59.16;101160.38;5072369;28;45247;-74
2022/04/02 01:42:42;;;;;;;;;6.00;5.00;;;;;2.31;59.55;101132.16;5081023;27;47258;-75
2022/04/02 01:45:09;;;;;;;;;4.00;4.00;;;;;2.34;59.37;101146.28;5070835;28;45400;-74
2022/04/02 01:47:34;;;;;;;;;6.00;5.00;;;;;2.37;58.99;101163.84;5067254;28;46037;-75
2022/04/02 01:49:59;;;;;;;;;6.00;4.75;;;;;2.43;59.19;101174.66;5080932;27;45335;-75
2022/04/02 01:52:26;;;;;;;;;4.50;3.50;;;;;2.40;58.94;101175.38;5068556;28;45341;-75
2022/04/02 01:54:51;;;;;;;;;5.25;5.25;;;;;2.30;59.46;101157.34;5075269;27;45473;-75
2022/04/02 01:57:17;;;;;;;;;4.50;4.50;;;;;2.34;59.06;101176.69;5073935;28;46156;-75
2022/04/02 01:59:44;;;;;;;;;7.50;4.50;;;;;2.20;59.10;101161.06;5075352;28;45748;-75
2022/04/02 02:02:10;;;;;;;;;4.75;4.75;;;;;2.24;59.58;101176.13;5063657;28;45274;-74
2022/04/02 02:04:37;;;;;;;;;7.50;6.00;;;;;2.31;59.29;101192.16;5073026;27;45298;-74
2022/04/02 02:07:03;;;;;;;;;7.50;2.50;;;;;2.30;59.36;101185.13;5077988;28;46990;-74
2022/04/02 02:09:28;;;;;;;;;6.50;6.50;;;;;2.20;59.21;101174.09;5070267;28;45517;-75
2022/04/02 02:11:54;;;;;;;;;8.75;5.00;;;;;2.16;59.60;101172.13;5080561;27;45350;-75
2022/04/02 02:14:20;;;;;;;;;5.25;5.25;;;;;2.07;58.93;101162.78;5078707;28;45414;-75
2022/04/02 02:16:45;;;;;;;;;6.50;6.50;;;;;2.13;59.19;101184.03;5080729;27;45341;-75
2022/04/02 02:19:10;;;;;;;;;5.00;5.00;;;;;2.01;59.43;101164.19;5078545;28;45315;-75
2022/04/02 02:21:36;;;;;;;;;5.50;5.50;;;;;2.06;59.54;101177.53;5059770;27;45261;-75
2022/04/02 02:24:01;;;;;;;;;8.25;6.00;;;;;1.96;59.21;101167.31;5077412;28;45937;-74
2022/04/02 02:26:27;;;;;;;;;4.50;4.50;;;;;1.97;59.63;101171.75;5060712;27;46271;-75
2022/04/02 02:28:52;;;;;;;;;5.50;5.00;;;;;1.89;59.67;101163.41;5077395;28;45428;-74
2022/04/02 02:31:18;;;;;;;;;8.00;4.00;;;;;2.08;60.05;101195.91;5081013;27;45505;-74
2022/04/02 02:36:27;;;;;;;;;4.00;4.00;;;;;1.62;59.95;101136.44;5060288;28;45347;-75
2022/04/02 02:38:53;;;;;;;;;6.00;5.00;;;;;1.97;59.95;101203.03;5075263;28;45297;-75
2022/04/02 02:41:19;;;;;;;;;8.00;8.00;;;;;1.95;59.83;101199.41;5072178;28;45287;-74
2022/04/02 02:43:44;;;;;;;;;6.00;6.00;;;;;1.78;60.31;101180.97;5070335;28;47210;-74
2022/04/02 02:46:14;;;;;;;;;8.75;8.00;;;;;1.63;59.85;101158.22;5071965;27;46097;-74
2022/04/02 02:48:40;;;;;;;;;5.00;5.00;;;;;1.64;60.08;101167.84;5074927;28;45263;-74
2022/04/02 02:51:05;;;;;;;;;5.00;5.00;;;;;1.84;60.38;101210.84;5071166;28;45370;-74
2022/04/02 02:53:31;;;;;;;;;8.75;6.50;;;;;1.74;60.57;101198.91;5073867;28;45939;-74
2022/04/02 02:55:56;;;;;;;;;5.75;5.75;;;;;1.53;60.42;101174.94;5072303;28;45466;-73
2022/04/02 02:58:21;;;;;;;;;9.00;8.25;;;;;1.72;60.50;101206.63;5074531;28;45449;-74
2022/04/02 03:00:47;;;;;;;;;8.00;8.00;;;;;1.63;60.41;101189.50;5066455;28;45535;-74
2022/04/02 03:03:12;;;;;;;;;7.50;7.50;;;;;1.66;60.50;101200.13;5069004;28;45363;-74
2022/04/02 03:05:37;;;;;;;;;7.00;6.00;;;;;1.64;60.49;101207.81;5065078;28;46221;-74
2022/04/02 03:08:03;;;;;;;;;9.00;6.00;;;;;1.56;60.46;101188.16;5070004;28;45330;-74
2022/04/02 03:10:29;;;;;;;;;6.00;6.00;;;;;1.67;60.94;101227.97;5080318;27;45325;-73
2022/04/02 03:12:57;;;;;;;;;8.50;8.00;;;;;1.64;61.40;101226.06;5077703;27;45233;-73
2022/04/02 03:15:24;;;;;;;;;8.00;5.75;;;;;1.62;60.38;101230.25;5066689;28;47725;-74
2022/04/02 03:17:50;;;;;;;;;4.75;4.00;;;;;1.61;60.89;101233.66;5075146;28;45362;-73
2022/04/02 03:20:18;;;;;;;;;7.50;7.50;;;;;1.28;60.80;101175.00;5080419;28;45383;-74
2022/04/02 03:22:45;;;;;;;;;8.25;6.00;;;;;1.41;61.47;101197.56;5079502;27;45848;-74
2022/04/02 03:25:15;;;;;;;;;8.75;5.00;;;;;1.42;60.92;101201.97;5079503;27;46139;-73
2022/04/02 03:27:46;;;;;;;;;5.75;5.75;;;;;1.36;60.71;101198.97;5078603;27;45624;-73
2022/04/02 03:30:14;;;;;;;;;8.50;6.00;;;;;1.45;61.43;101218.69;5079974;27;45382;-73
2022/04/02 03:32:41;;;;;;;;;5.00;4.00;;;;;1.26;61.49;101185.31;5066380;27;45417;-73
2022/04/02 03:35:08;;;;;;;;;8.50;8.50;;;;;1.15;61.10;101174.97;5078173;27;45497;-73
2022/04/02 03:37:36;;;;;;;;;11.25;9.00;;;;;1.24;61.08;101186.91;5065047;27;45454;-73
2022/04/02 03:40:05;;;;;;;;;10.75;8.25;;;;;1.48;61.42;101229.31;5079655;27;45233;-73
2022/04/02 03:42:31;;;;;;;;;12.00;9.00;;;;;1.46;61.59;101232.66;5065774;27;45543;-73
2022/04/02 03:44:56;;;;;;;;;11.25;6.00;;;;;1.38;61.67;101226.03;5079502;28;45436;-73
2022/04/02 03:47:22;;;;;;;;;10.00;8.00;;;;;1.45;61.31;101236.03;5076482;27;45316;-74
2022/04/02 03:49:50;;;;;;;;;8.00;8.00;;;;;1.43;62.27;101241.16;5078782;28;45444;-74
2022/04/02 03:52:16;;;;;;;;;6.25;6.25;;;;;1.04;61.79;101180.34;5065844;28;45407;-74
2022/04/02 03:54:41;;;;;;;;;12.00;8.25;;;;;1.33;61.70;101230.91;5080220;27;45989;-74
2022/04/02 03:57:09;;;;;;;;;8.25;6.75;;;;;1.26;61.68;101224.38;5071342;27;45187;-74
2022/04/02 03:59:35;;;;;;;;;10.00;8.25;;;;;1.23;61.85;101216.38;5083199;27;45332;-74
2022/04/02 04:02:00;;;;;;;;;10.00;9.00;;;;;1.16;61.49;101203.72;5059054;28;47146;-74
2022/04/02 04:04:27;;;;;;;;;6.25;5.25;;;;;1.33;61.80;101246.53;5070549;28;46038;-74
2022/04/02 04:06:54;;;;;;;;;8.75;7.75;;;;;1.18;61.93;101216.84;5059565;27;45411;-74
2022/04/02 04:09:20;;;;;;;;;5.50;1.75;;;;;1.32;62.22;101240.44;5079272;27;45259;-74
2022/04/02 04:11:46;;;;;;;;;9.25;8.75;;;;;1.33;61.63;101246.53;5078952;27;45264;-74
2022/04/02 04:14:12;;;;;;;;;11.00;8.25;;;;;1.17;62.11;101218.53;5078238;27;45340;-74
2022/04/02 04:16:38;;;;;;;;;9.50;7.00;;;;;1.14;61.90;101220.94;5079291;27;45273;-74
2022/04/02 04:19:03;;;;;;;;;8.00;8.00;;;;;1.31;61.83;101253.31;5078500;27;45342;-74
2022/04/02 04:21:29;;;;;;;;;11.00;9.50;;;;;1.19;62.58;101236.88;5077900;28;46349;-74
2022/04/02 04:23:54;;;;;;;;;11.00;8.00;;;;;1.02;62.27;101213.19;5069842;28;47116;-74
2022/04/02 04:26:20;;;;;;;;;12.50;8.75;;;;;1.09;62.02;101222.31;5074262;27;45323;-74
2022/04/02 04:28:46;;;;;;;;;7.50;5.50;;;;;1.17;61.98;101248.88;5073720;28;45298;-74
2022/04/02 04:31:11;;;;;;;;;10.25;8.50;;;;;1.24;62.44;101265.03;5072870;27;45308;-74
2022/04/02 04:33:37;;;;;;;;;14.00;9.25;;;;;1.10;62.28;101247.56;5068893;28;47108;-74
2022/04/02 04:36:03;;;;;;;;;7.50;5.50;;;;;1.13;62.38;101258.19;5072174;28;45264;-74
2022/04/02 04:38:29;;;;;;;;;12.50;9.00;;;;;1.20;62.03;101275.13;5072238;28;45426;-74
2022/04/02 04:40:55;;;;;;;;;8.75;8.00;;;;;1.01;62.51;101241.69;5068403;27;46968;-74
2022/04/02 04:43:20;;;;;;;;;11.50;8.00;;;;;0.83;62.30;101215.31;5070883;28;46217;-74
2022/04/02 04:45:46;;;;;;;;;9.00;8.00;;;;;0.91;62.85;101229.75;5072871;27;45237;-74
2022/04/02 04:48:11;;;;;;;;;9.25;8.00;;;;;1.08;62.86;101267.38;5069415;28;45667;-74
2022/04/02 04:50:36;;;;;;;;;9.75;7.75;;;;;0.81;62.11;101223.03;5073086;27;45461;-73
2022/04/02 04:53:05;;;;;;;;;6.50;6.00;;;;;0.76;62.20;101221.78;5065085;27;46977;-74
2022/04/02 04:55:30;;;;;;;;;11.00;7.50;;;;;1.12;62.50;101298.00;5067871;27;45322;-74
2022/04/02 04:57:56;;;;;;;;;6.50;5.25;;;;;0.86;62.29;101259.75;5073915;28;45720;-75
2022/04/02 05:00:22;;;;;;;;;8.75;7.00;;;;;0.85;62.85;101261.44;5066956;27;45379;-75
2022/04/02 05:02:47;;;;;;;;;4.25;4.25;;;;;1.07;62.51;101299.41;5068962;28;46177;-75
2022/04/02 05:05:14;;;;;;;;;12.50;7.50;;;;;1.03;62.70;101300.88;5068340;28;45339;-75
2022/04/02 05:07:40;;;;;;;;;11.50;9.00;;;;;0.82;62.71;101276.84;5068332;28;45287;-75
2022/04/02 05:10:08;;;;;;;;;10.75;10.25;;;;;1.04;62.21;101313.13;5075964;28;45233;-75
2022/04/02 05:12:34;;;;;;;;;12.50;8.50;;;;;0.93;63.11;101298.44;5068064;28;46523;-76
2022/04/02 05:15:00;;;;;;;;;15.00;9.00;;;;;0.87;63.04;101290.19;5080284;28;45835;-76
2022/04/02 05:17:25;;;;;;;;;10.00;8.75;;;;;0.88;62.69;101292.00;5079905;28;45314;-75
2022/04/02 05:19:52;;;;;;;;;15.00;11.75;;;;;0.95;63.52;101314.16;5081564;27;45500;-75
2022/04/02 05:22:17;;;;;;;;;13.50;10.50;;;;;1.00;62.69;101326.69;5080996;27;47225;-75
2022/04/02 05:24:43;;;;;;;;;19.67;19.67;;;;;0.99;62.34;101332.69;5080975;27;45378;-76
2022/04/02 05:27:09;;;;;;;;;16.25;14.00;;;;;0.84;62.96;101305.56;5081371;27;45390;-76
2022/04/02 05:29:35;;;;;;;;;14.00;11.00;;;;;0.99;63.23;101337.91;5081284;27;45305;-75
2022/04/02 05:32:00;;;;;;;;;15.25;11.00;;;;;0.98;63.08;101337.78;5086249;27;46997;-74
2022/04/02 05:34:25;;;;;;;;;13.75;9.00;;;;;0.93;63.54;101326.16;5079844;27;45345;-74
2022/04/02 05:36:51;;;;;;;;;11.00;8.00;;;;;0.89;62.61;101327.63;5069429;27;45256;-74
2022/04/02 05:39:16;;;;;;;;;15.75;13.00;;;;;0.87;63.31;101331.84;5078260;27;45489;-74
2022/04/02 05:41:41;;;;;;;;;10.50;10.00;;;;;0.77;62.91;101311.16;5069342;27;46212;-75
2022/04/02 05:44:07;;;;;;;;;11.00;9.50;;;;;0.93;63.34;101341.78;5075296;28;45411;-75
2022/04/02 05:46:33;;;;;;;;;8.75;8.75;;;;;0.74;63.44;101321.34;5068376;28;45275;-76
2022/04/02 05:48:59;;;;;;;;;15.00;12.00;;;;;0.82;63.26;101333.19;5078098;28;45408;-75
2022/04/02 05:51:25;;;;;;;;;12.50;12.00;;;;;0.90;62.69;101342.47;5070443;27;46458;-75
2022/04/02 05:53:51;;;;;;;;;10.00;10.00;;;;;0.81;63.09;101337.50;5077000;28;45438;-75
2022/04/02 05:56:22;;;;;;;;;15.25;15.25;;;;;0.63;62.70;101299.75;5074461;28;45310;-75
2022/04/02 05:58:47;;;;;;;;;14.00;12.00;;;;;0.92;62.97;101352.97;5071407;28;45317;-75
2022/04/02 06:01:14;;;;;;;;;11.00;9.00;;;;;0.69;63.39;101310.59;5067078;28;46117;-76
2022/04/02 06:03:40;;;;;;;;;10.50;10.50;;;;;0.79;63.13;101326.06;5069570;28;45441;-77
2022/04/02 06:06:09;;;;;;;;;11.00;6.25;;;;;0.89;62.99;101345.84;5073272;28;45386;-77
2022/04/02 06:08:35;;;;;;;;;12.25;8.75;;;;;0.91;63.32;101357.28;5074030;28;46359;-76
2022/04/02 06:11:05;;;;;;;;;11.25;11.25;;;;;0.84;63.69;101347.19;5083093;27;47987;-75
2022/04/02 06:13:31;;;;;;;;;16.75;12.00;;;;;0.85;62.66;101338.63;5073867;28;45363;-77
2022/04/02 06:15:56;;;;;;;;;12.00;10.00;;;;;1.01;63.86;101370.16;5081439;27;45704;-76
2022/04/02 06:18:21;;;;;;;;;18.00;15.00;;;;;1.03;62.97;101375.47;5073590;28;45904;-77
2022/04/02 06:20:50;;;;;;;;;11.25;8.25;;;;;1.05;63.05;101372.19;5069894;27;46195;-74
2022/04/02 06:23:16;;;;;;;;;14.50;12.00;;;;;0.99;62.89;101357.84;5072671;28;45525;-76
2022/04/02 06:25:42;;;;;;;;;11.50;11.25;;;;;1.13;63.19;101379.66;5067520;28;45256;-76
2022/04/02 06:28:07;;;;;;;;;11.00;8.50;;;;;1.05;62.89;101360.88;5073842;28;45193;-78
2022/04/02 06:30:33;;;;;;;;;13.50;8.00;;;;;1.19;63.69;101386.19;5073669;28;45231;-79
2022/04/02 06:33:00;;;;;;;;;20.00;16.33;;;;;1.23;63.37;101387.28;5079790;28;45223;-79
2022/04/02 06:35:26;;;;;;;;;17.25;11.75;;;;;1.26;62.81;101392.72;5075136;27;45442;-79
2022/04/02 06:37:54;;;;;;;;;10.25;10.25;;;;;1.01;63.15;101345.81;5080419;27;45290;-79
2022/04/02 06:40:21;;;;;;;;;13.75;8.75;;;;;1.15;63.93;101363.34;5076728;27;45759;-76
2022/04/02 06:42:46;;;;;;;;;10.00;8.75;;;;;1.42;63.76;101399.94;5066407;28;45279;-76
2022/04/02 06:45:12;;;;;;;;;13.75;11.50;;;;;1.44;63.60;101386.22;5075733;28;45217;-78
2022/04/02 06:47:37;;;;;;;;;11.50;8.75;;;;;1.41;63.43;101359.97;5065858;28;45458;-80
2022/04/02 06:50:05;;;;;;;;;8.50;8.50;;;;;1.74;63.35;101394.38;5079905;28;45227;-79
2022/04/02 06:52:31;;;;;;;;;12.75;9.25;;;;;1.93;62.95;101405.28;5067259;27;45359;-79
2022/04/02 06:54:56;;;;;;;;;9.25;8.00;;;;;1.92;62.90;101368.66;5073662;27;45320;-79
2022/04/02 06:57:22;;;;;;;;;10.75;9.00;;;;;1.88;62.56;101351.00;5064414;28;45408;-79
2022/04/02 06:59:48;;;;;;;;;4.50;4.25;;;;;2.13;61.95;101364.91;5064240;28;46589;-79
2022/04/02 07:02:16;;;;;;;;;11.50;8.75;;;;;2.53;61.78;101418.81;5062032;28;45413;-79
2022/04/02 07:04:41;;;;;;;;;12.50;8.00;;;;;2.54;61.33;101394.53;5066662;28;45379;-79
2022/04/02 07:07:07;;;;;;;;;9.50;5.75;;;;;2.74;61.59;101401.94;5067303;28;45357;-80
2022/04/02 07:09:32;;;;;;;;;10.50;9.00;;;;;2.68;60.96;101372.84;5066375;27;45416;-79
2022/04/02 07:11:58;;;;;;;;;15.00;9.75;;;;;3.00;60.43;101410.59;5072779;28;45334;-79
2022/04/02 07:14:23;;;;;;;;;9.75;8.25;;;;;3.26;60.65;101426.22;5068548;27;45324;-79
2022/04/02 07:16:49;;;;;;;;;15.00;9.25;;;;;3.42;60.08;101433.31;5066201;28;45362;-78
2022/04/02 07:19:20;;;;;;;;;9.00;9.00;;;;;3.50;60.44;101407.63;5069342;27;45365;-79
2022/04/02 07:21:46;;;;;;;;;11.75;7.25;;;;;3.69;59.30;101420.16;5059385;28;45466;-80
2022/04/02 07:24:13;;;;;;;;;11.50;8.00;;;;;3.63;59.13;101394.53;5067938;28;45519;-77
2022/04/02 07:26:39;;;;;;;;;11.00;9.00;;;;;3.62;57.88;101371.81;5075347;28;45252;-77
2022/04/02 07:29:08;;;;;;;;;10.00;8.50;;;;;3.99;58.60;101414.19;5082631;27;46328;-78
2022/04/02 07:31:34;;;;;;;;;6.25;6.25;;;;;4.19;58.33;101432.78;5058696;28;45560;-78
2022/04/02 07:33:59;;;;;;;;;7.00;7.00;;;;;4.17;57.73;101401.31;5070994;28;45368;-76
2022/04/02 07:37:06;;;;;;;;;10.00;9.00;;;;;4.36;57.52;101423.34;5062085;28;45920;-75
2022/04/02 07:39:34;;;;;;;;;7.00;5.75;;;;;4.58;57.55;101428.13;5067357;28;47266;-76
2022/04/02 07:42:14;;;;;;;;;11.25;6.00;;;;;4.63;56.82;101421.44;5085885;27;45409;-77
2022/04/02 07:45:04;;;;;;;;;9.25;6.75;;;;;4.76;56.23;101439.69;5064345;28;45343;-76
2022/04/02 07:47:45;;;;;;;;;26.25;16.25;;;;;4.72;56.28;101417.63;5070477;28;45494;-76
2022/04/02 07:50:14;;;;;;;;;6.50;6.50;;;;;4.76;56.18;101408.25;5066883;28;47382;-78
2022/04/02 07:52:45;;;;;;;;;8.50;7.00;;;;;4.92;55.87;101413.53;5066578;28;45377;-78
2022/04/02 07:55:11;;;;;;;;;6.25;5.75;;;;;5.09;55.95;101424.06;5067073;28;45477;-76
2022/04/02 07:57:42;;;;;;;;;8.25;7.00;;;;;5.15;55.56;101432.25;5080840;27;46049;-76
2022/04/02 08:00:10;;;;;;;;;8.00;7.00;;;;;5.21;54.54;101421.22;5066923;28;45302;-75
2022/04/02 08:02:38;;;;;;;;;7.50;6.50;;;;;5.44;54.24;101453.97;5064977;28;45319;-76
2022/04/02 08:05:07;;;;;;;;;6.00;6.00;;;;;5.33;54.39;101414.94;5066226;27;45292;-76
2022/04/02 08:07:35;;;;;;;;;6.50;6.50;;;;;5.63;54.28;101453.25;5063642;28;45491;-75
2022/04/02 08:10:06;;;;;;;;;8.00;6.00;;;;;5.61;53.02;101425.22;5078412;28;46402;-78
2022/04/02 08:12:35;;;;;;;;;10.00;7.00;;;;;5.67;53.53;101416.78;5076838;28;45405;-78
2022/04/02 08:15:03;;;;;;;;;6.25;6.25;;;;;6.06;53.82;101448.63;5078783;28;45464;-76
2022/04/02 08:17:30;;;;;;;;;6.00;6.00;;;;;6.22;52.77;101455.59;5078116;27;45280;-77
2022/04/02 08:19:58;;;;;;;;;5.25;5.25;;;;;6.34;52.15;101450.09;5071959;27;45329;-75
2022/04/02 08:22:23;;;;;;;;;6.25;4.75;;;;;6.49;51.37;101459.63;5062013;28;45385;-77
2022/04/02 08:24:49;;;;;;;;;5.75;3.75;;;;;6.58;51.05;101413.66;5071704;27;45358;-77
2022/04/02 08:27:35;;;;;;;;;4.75;3.00;;;;;6.65;48.28;101423.66;5060667;28;45502;-77
2022/04/02 08:30:05;;;;;;;;;3.75;3.75;;;;;6.72;49.85;101416.16;5071743;28;45326;-76
2022/04/02 08:32:49;;;;;;;;;5.50;5.50;;;;;7.00;46.96;101456.94;5066838;28;45477;-75
2022/04/02 08:35:29;;;;;;;;;3.00;3.00;;;;;6.94;48.15;101433.84;5079273;27;45536;-74
2022/04/02 08:37:58;;;;;;;;;5.50;4.25;;;;;7.21;48.05;101457.06;5067217;28;45516;-73
2022/04/02 08:40:39;;;;;;;;;4.50;4.00;;;;;7.40;49.10;101459.75;5070503;28;46775;-73
2022/04/02 08:43:14;;;;;;;;;6.00;3.50;;;;;7.60;48.01;101462.44;5070361;28;46119;-73
2022/04/02 08:46:15;;;;;;;;;3.00;3.00;;;;;7.74;48.51;101449.91;5071971;27;45202;-75
2022/04/02 08:48:58;;;;;;;;;5.75;3.50;;;;;7.95;48.21;101452.63;5067587;27;46508;-75
2022/04/02 08:51:41;;;;;;;;;5.75;3.25;;;;;8.01;45.53;101460.78;5070056;28;45429;-75
2022/04/02 08:54:18;;;;;;;;;5.00;3.75;;;;;7.94;45.97;101425.41;5077437;28;45355;-75
2022/04/02 08:56:47;;;;;;;;;7.00;4.75;;;;;8.21;47.29;101451.19;5074476;27;45163;-74
2022/04/02 08:59:32;;;;;;;;;4.00;4.00;;;;;8.29;45.49;101452.41;5071166;28;46136;-73
2022/04/02 09:02:17;;;;;;;;;2.50;2.50;;;;;8.38;45.97;101430.84;5061704;27;45474;-75
2022/04/02 09:05:15;;;;;;;;;4.75;3.00;;;;;8.81;45.87;101467.84;5070805;28;45479;-73
2022/04/02 09:07:59;;;;;;;;;7.25;4.75;;;;;9.06;45.59;101467.13;5065124;28;45483;-74
2022/04/02 09:10:41;;;;;;;;;3.00;3.00;;;;;9.14;44.97;101471.00;5074000;28;47135;-74
2022/04/02 09:13:22;;;;;;;;;4.50;4.25;;;;;9.34;45.21;101479.69;5072455;27;45537;-74
2022/04/02 09:16:08;;;;;;;;;10.75;6.50;;;;;9.45;43.32;101466.06;5064816;27;45345;-75
2022/04/02 09:19:14;;;;;;;;;4.25;4.25;;;;;9.45;44.46;101472.22;5070658;28;45251;-73
2022/04/02 09:21:58;;;;;;;;;4.25;3.00;;;;;9.57;43.43;101487.63;5063708;28;45347;-74
2022/04/02 09:24:44;;;;;;;;;10.00;7.75;;;;;9.75;44.36;101482.19;5079012;28;45315;-74
2022/04/02 09:27:51;;;;;;;;;10.75;9.00;;;;;9.88;42.75;101479.16;5069431;27;45475;-75
2022/04/02 09:30:47;;;;;;;;;8.00;8.00;;;;;10.13;43.72;101469.50;5079614;28;45378;-75
2022/04/02 09:33:18;;;;;;;;;11.75;11.25;;;;;10.30;42.26;101482.53;5079611;28;45493;-73
2022/04/02 09:36:08;;;;;;;;;23.50;23.25;;;;;10.44;43.21;101471.56;5075185;27;45276;-76
2022/04/02 09:38:51;;;;;;;;;5.75;4.75;;;;;10.63;42.71;101476.66;5073976;28;45347;-74
2022/04/02 09:41:16;;;;;;;;;4.00;4.00;;;;;10.52;39.93;101476.25;5087887;27;45666;-72
2022/04/02 09:44:12;;;;;;;;;5.00;5.00;;;;;10.42;40.10;101458.31;5073550;28;45362;-73
2022/04/02 09:47:03;;;;;;;;;8.00;7.25;;;;;10.46;39.79;101480.44;5060131;28;46389;-73
2022/04/02 09:49:40;;;;;;;;;15.75;15.75;;;;;10.45;39.12;101479.56;5077411;28;45358;-73
2022/04/02 09:52:07;;;;;;;;;9.75;6.75;;;;;10.14;36.85;101445.81;5066758;27;45379;-74
2022/04/02 09:54:45;;;;;;;;;5.00;4.00;;;;;10.47;38.88;101461.09;5080519;28;45536;-73
2022/04/02 09:57:26;;;;;;;;;3.75;3.75;;;;;10.57;37.44;101478.19;5087469;27;46454;-75
2022/04/02 10:00:00;;;;;;;;;5.00;4.00;;;;;10.65;37.66;101474.97;5082423;27;45828;-73
2022/04/02 10:03:04;;;;;;;;;3.25;3.25;;;;;10.86;38.04;101476.53;5062617;27;44883;-73
2022/04/02 10:05:42;;;;;;;;;4.00;4.00;;;;;11.04;37.69;101466.59;5078468;28;46596;-73
2022/04/02 10:08:28;;;;;;;;;3.50;3.00;;;;;11.38;38.22;101483.56;5078646;28;46219;-75
2022/04/02 10:11:00;;;;;;;;;4.00;3.00;;;;;11.31;37.29;101452.44;5080595;27;45318;-74
2022/04/02 10:13:31;;;;;;;;;5.00;4.25;;;;;11.62;36.43;101476.41;5078356;28;45398;-75
2022/04/02 10:15:59;;;;;;;;;4.50;3.50;;;;;11.75;35.43;101500.59;5066720;27;45337;-75
2022/04/02 10:18:26;;;;;;;;;4.00;2.50;;;;;11.82;34.60;101484.06;5071956;28;45864;-74
2022/04/02 10:20:53;;;;;;;;;4.50;4.50;;;;;11.80;35.22;101478.69;5078978;28;45436;-76
2022/04/02 10:23:23;;;;;;;;;4.25;4.25;;;;;11.79;34.58;101476.91;5079407;28;45587;-75
2022/04/02 10:26:00;;;;;;;;;5.25;4.75;;;;;11.55;32.58;101482.34;5080112;27;45515;-76
2022/04/02 10:28:30;;;;;;;;;7.00;3.00;;;;;11.96;33.15;101474.78;5078126;27;46880;-75
2022/04/02 10:30:57;;;;;;;;;7.00;5.25;;;;;11.98;33.42;101473.06;5075283;28;45386;-74
2022/04/02 10:33:29;;;;;;;;;5.50;4.75;;;;;11.92;32.91;101469.34;5071314;28;45362;-75
2022/04/02 10:35:55;;;;;;;;;10.00;7.00;;;;;11.93;32.82;101480.00;5076330;27;45291;-73
2022/04/02 10:38:33;;;;;;;;;5.50;4.00;;;;;11.64;33.12;101481.72;5079545;27;46752;-76
2022/04/02 10:41:04;;;;;;;;;4.00;4.00;;;;;11.33;33.16;101454.28;5066447;28;45264;-75
2022/04/02 10:43:34;;;;;;;;;5.50;5.50;;;;;11.30;33.63;101485.94;5072006;28;45337;-75
2022/04/02 10:46:03;;;;;;;;;5.00;5.00;;;;;10.87;32.91;101444.88;5067880;28;45277;-73
2022/04/02 10:48:47;;;;;;;;;9.25;3.00;;;;;10.98;33.16;101480.50;5071288;28;46178;-74
2022/04/02 10:51:13;;;;;;;;;6.75;5.00;;;;;11.02;34.42;101462.97;5068208;28;45474;-74
2022/04/02 10:53:43;;;;;;;;;8.00;6.25;;;;;11.15;33.35;101474.88;5074674;28;45334;-75
2022/04/02 10:56:21;;;;;;;;;5.50;5.50;;;;;11.03;33.52;101454.19;5072482;28;45457;-75
2022/04/02 10:58:50;;;;;;;;;4.25;4.25;;;;;11.24;33.13;101453.09;5069391;28;45398;-75
2022/04/02 11:01:22;;;;;;;;;12.75;12.00;;;;;11.64;34.50;101471.13;5064967;28;45433;-75
2022/04/02 11:03:55;;;;;;;;;1.75;1.75;;;;;11.77;32.70;101445.94;5074473;28;45464;-76
2022/04/02 11:06:46;;;;;;;;;4.75;3.75;;;;;12.01;31.73;101474.91;5079556;27;45319;-76
2022/04/02 11:09:41;;;;;;;;;2.25;2.25;;;;;12.15;32.33;101480.59;5077173;28;46214;-77
2022/04/02 11:12:08;;;;;;;;;6.00;4.00;;;;;12.07;33.21;101470.72;5078718;27;45257;-76
2022/04/02 11:14:43;;;;;;;;;3.50;3.00;;;;;11.91;33.00;101464.91;5076610;27;45174;-77
2022/04/02 11:17:29;;;;;;;;;2.00;2.00;;;;;11.70;33.97;101463.34;5078675;27;45262;-76
2022/04/02 11:20:14;;;;;;;;;3.25;3.25;;;;;11.51;33.24;101437.16;5079207;28;46146;-75
2022/04/02 11:22:51;;;;;;;;;2.50;2.50;;;;;11.66;30.77;101456.19;5078694;28;45324;-75
2022/04/02 11:25:31;;;;;;;;;2.75;2.00;;;;;11.58;30.35;101453.31;5079248;28;45370;-76
2022/04/02 11:28:16;;;;;;;;;4.00;4.00;;;;;11.60;30.28;101467.50;5066565;27;45571;-76
2022/04/02 11:30:43;;;;;;;;;3.00;3.00;;;;;11.81;31.52;101463.69;5070194;28;47029;-76
2022/04/02 11:33:14;;;;;;;;;3.00;3.00;;;;;12.03;31.61;101455.56;5068591;28;45285;-75
2022/04/02 11:35:51;;;;;;;;;3.00;3.00;;;;;12.49;30.70;101462.16;5076951;27;45292;-75
2022/04/02 11:38:26;;;;;;;;;2.75;2.75;;;;;12.53;29.15;101465.78;5069762;28;45432;-74
2022/04/02 11:41:07;;;;;;;;;5.00;3.75;;;;;12.51;30.63;101473.69;5069812;27;45535;-77
2022/04/02 11:43:38;;;;;;;;;4.50;2.75;;;;;12.27;29.68;101451.81;5070970;28;45493;-75